sensor_id;sensor_type;location;lat;lon;timestamp;P1;durP1;ratioP1;P2;durP2;ratioP2
8331;SDS011;4203;48.144;14.118;2022-10-15T00:00:11;18.17;;;16.35;;
8331;SDS011;4203;48.144;14.118;2022-10-15T00:02:39;17.75;;;15.82;;
8331;SDS011;4203;48.144;14.118;2022-10-15T00:05:06;19.33;;;16.45;;
8331;SDS011;4203;48.144;14.118;2022-10-15T00:07:34;18.92;;;16.92;;
8331;SDS011;4203;48.144;14.118;2022-10-15T00:10:01;20.40;;;17.17;;
8331;SDS011;4203;48.144;14.118;2022-10-15T00:12:30;22.63;;;16.30;;
8331;SDS011;4203;48.144;14.118;2022-10-15T00:14:58;19.50;;;17.48;;
8331;SDS011;4203;48.144;14.118;2022-10-15T00:17:25;25.25;;;17.15;;
8331;SDS011;4203;48.144;14.118;2022-10-15T00:19:53;24.02;;;17.20;;
8331;SDS011;4203;48.144;14.118;2022-10-15T00:22:20;22.83;;;17.85;;
8331;SDS011;4203;48.144;14.118;2022-10-15T00:24:48;20.38;;;17.35;;
8331;SDS011;4203;48.144;14.118;2022-10-15T00:27:15;20.27;;;17.92;;
8331;SDS011;4203;48.144;14.118;2022-10-15T00:29:44;24.88;;;17.63;;
8331;SDS011;4203;48.144;14.118;2022-10-15T00:32:11;21.17;;;18.73;;
8331;SDS011;4203;48.144;14.118;2022-10-15T00:34:38;19.45;;;17.20;;
8331;SDS011;4203;48.144;14.118;2022-10-15T00:37:05;19.05;;;17.00;;
8331;SDS011;4203;48.144;14.118;2022-10-15T00:39:33;17.83;;;15.90;;
8331;SDS011;4203;48.144;14.118;2022-10-15T00:42:02;17.63;;;15.80;;
8331;SDS011;4203;48.144;14.118;2022-10-15T00:44:49;26.42;;;16.08;;
8331;SDS011;4203;48.144;14.118;2022-10-15T00:47:19;19.67;;;16.50;;
8331;SDS011;4203;48.144;14.118;2022-10-15T00:49:54;17.63;;;15.77;;
8331;SDS011;4203;48.144;14.118;2022-10-15T00:52:33;17.65;;;15.75;;
8331;SDS011;4203;48.144;14.118;2022-10-15T00:55:08;17.17;;;15.18;;
8331;SDS011;4203;48.144;14.118;2022-10-15T00:57:38;25.67;;;18.38;;
8331;SDS011;4203;48.144;14.118;2022-10-15T01:00:09;21.17;;;16.25;;
8331;SDS011;4203;48.144;14.118;2022-10-15T01:02:39;16.35;;;14.77;;
8331;SDS011;4203;48.144;14.118;2022-10-15T01:05:06;18.55;;;16.58;;
8331;SDS011;4203;48.144;14.118;2022-10-15T01:07:35;17.67;;;15.98;;
8331;SDS011;4203;48.144;14.118;2022-10-15T01:10:02;19.45;;;16.98;;
8331;SDS011;4203;48.144;14.118;2022-10-15T01:12:35;17.60;;;15.77;;
8331;SDS011;4203;48.144;14.118;2022-10-15T01:15:16;17.65;;;15.85;;
8331;SDS011;4203;48.144;14.118;2022-10-15T01:17:49;17.15;;;15.43;;
8331;SDS011;4203;48.144;14.118;2022-10-15T01:20:26;15.75;;;14.15;;
8331;SDS011;4203;48.144;14.118;2022-10-15T01:23:23;19.23;;;15.57;;
8331;SDS011;4203;48.144;14.118;2022-10-15T01:26:23;17.67;;;15.23;;
8331;SDS011;4203;48.144;14.118;2022-10-15T01:29:04;21.40;;;13.68;;
8331;SDS011;4203;48.144;14.118;2022-10-15T01:31:51;16.30;;;14.57;;
8331;SDS011;4203;48.144;14.118;2022-10-15T01:34:26;15.75;;;14.25;;
8331;SDS011;4203;48.144;14.118;2022-10-15T01:37:03;15.20;;;13.65;;
8331;SDS011;4203;48.144;14.118;2022-10-15T01:39:34;15.93;;;14.23;;
8331;SDS011;4203;48.144;14.118;2022-10-15T01:42:06;19.27;;;15.45;;
8331;SDS011;4203;48.144;14.118;2022-10-15T01:44:41;16.02;;;14.32;;
8331;SDS011;4203;48.144;14.118;2022-10-15T01:47:16;16.30;;;14.40;;
8331;SDS011;4203;48.144;14.118;2022-10-15T01:49:47;18.20;;;15.85;;
8331;SDS011;4203;48.144;14.118;2022-10-15T01:52:19;15.43;;;13.85;;
8331;SDS011;4203;48.144;14.118;2022-10-15T01:54:49;17.13;;;15.38;;
8331;SDS011;4203;48.144;14.118;2022-10-15T01:57:18;14.40;;;13.00;;
8331;SDS011;4203;48.144;14.118;2022-10-15T01:59:47;17.80;;;13.45;;
8331;SDS011;4203;48.144;14.118;2022-10-15T02:02:16;16.23;;;14.52;;
8331;SDS011;4203;48.144;14.118;2022-10-15T02:04:43;17.60;;;14.70;;
8331;SDS011;4203;48.144;14.118;2022-10-15T02:07:11;15.25;;;13.70;;
8331;SDS011;4203;48.144;14.118;2022-10-15T02:09:53;17.45;;;15.65;;
8331;SDS011;4203;48.144;14.118;2022-10-15T02:12:30;17.20;;;14.02;;
8331;SDS011;4203;48.144;14.118;2022-10-15T02:15:05;17.98;;;15.20;;
8331;SDS011;4203;48.144;14.118;2022-10-15T02:17:42;16.70;;;13.40;;
8331;SDS011;4203;48.144;14.118;2022-10-15T02:20:16;22.35;;;15.35;;
8331;SDS011;4203;48.144;14.118;2022-10-15T02:22:49;15.05;;;13.55;;
8331;SDS011;4203;48.144;14.118;2022-10-15T02:25:21;18.65;;;14.43;;
8331;SDS011;4203;48.144;14.118;2022-10-15T02:27:51;18.27;;;15.02;;
8331;SDS011;4203;48.144;14.118;2022-10-15T02:30:21;19.02;;;15.48;;
8331;SDS011;4203;48.144;14.118;2022-10-15T02:32:51;21.77;;;15.15;;
8331;SDS011;4203;48.144;14.118;2022-10-15T02:35:22;17.52;;;15.57;;
8331;SDS011;4203;48.144;14.118;2022-10-15T02:37:50;16.77;;;14.93;;
8331;SDS011;4203;48.144;14.118;2022-10-15T02:40:20;17.25;;;15.02;;
8331;SDS011;4203;48.144;14.118;2022-10-15T02:42:51;16.25;;;14.65;;
8331;SDS011;4203;48.144;14.118;2022-10-15T02:45:19;15.25;;;13.63;;
8331;SDS011;4203;48.144;14.118;2022-10-15T02:47:47;16.25;;;14.25;;
8331;SDS011;4203;48.144;14.118;2022-10-15T02:50:15;16.60;;;14.82;;
8331;SDS011;4203;48.144;14.118;2022-10-15T02:52:42;17.50;;;15.68;;
8331;SDS011;4203;48.144;14.118;2022-10-15T02:55:10;17.42;;;15.80;;
8331;SDS011;4203;48.144;14.118;2022-10-15T02:57:37;17.20;;;14.60;;
8331;SDS011;4203;48.144;14.118;2022-10-15T03:00:04;15.95;;;14.35;;
8331;SDS011;4203;48.144;14.118;2022-10-15T03:02:33;16.75;;;14.32;;
8331;SDS011;4203;48.144;14.118;2022-10-15T03:05:00;16.98;;;15.02;;
8331;SDS011;4203;48.144;14.118;2022-10-15T03:07:29;18.88;;;15.45;;
8331;SDS011;4203;48.144;14.118;2022-10-15T03:09:56;19.45;;;16.23;;
8331;SDS011;4203;48.144;14.118;2022-10-15T03:12:23;17.08;;;15.27;;
8331;SDS011;4203;48.144;14.118;2022-10-15T03:14:50;24.05;;;16.67;;
8331;SDS011;4203;48.144;14.118;2022-10-15T03:17:18;24.30;;;15.75;;
8331;SDS011;4203;48.144;14.118;2022-10-15T03:19:45;19.75;;;16.00;;
8331;SDS011;4203;48.144;14.118;2022-10-15T03:22:13;17.42;;;15.52;;
8331;SDS011;4203;48.144;14.118;2022-10-15T03:24:41;18.92;;;14.90;;
8331;SDS011;4203;48.144;14.118;2022-10-15T03:27:08;18.30;;;15.38;;
8331;SDS011;4203;48.144;14.118;2022-10-15T03:29:36;16.95;;;14.80;;
8331;SDS011;4203;48.144;14.118;2022-10-15T03:32:03;18.20;;;16.30;;
8331;SDS011;4203;48.144;14.118;2022-10-15T03:34:30;16.60;;;13.68;;
8331;SDS011;4203;48.144;14.118;2022-10-15T03:36:58;21.67;;;15.68;;
8331;SDS011;4203;48.144;14.118;2022-10-15T03:39:25;94.45;;;45.80;;
8331;SDS011;4203;48.144;14.118;2022-10-15T03:41:53;42.33;;;25.65;;
8331;SDS011;4203;48.144;14.118;2022-10-15T03:44:20;19.60;;;15.45;;
8331;SDS011;4203;48.144;14.118;2022-10-15T03:46:48;21.02;;;16.27;;
8331;SDS011;4203;48.144;14.118;2022-10-15T03:49:15;21.80;;;16.20;;
8331;SDS011;4203;48.144;14.118;2022-10-15T03:51:43;23.60;;;17.17;;
8331;SDS011;4203;48.144;14.118;2022-10-15T03:54:10;22.55;;;16.52;;
8331;SDS011;4203;48.144;14.118;2022-10-15T03:56:37;24.08;;;15.43;;
8331;SDS011;4203;48.144;14.118;2022-10-15T03:59:06;18.25;;;14.95;;
8331;SDS011;4203;48.144;14.118;2022-10-15T04:01:33;18.92;;;16.02;;
8331;SDS011;4203;48.144;14.118;2022-10-15T04:04:00;20.10;;;16.27;;
8331;SDS011;4203;48.144;14.118;2022-10-15T04:06:27;25.65;;;17.27;;
8331;SDS011;4203;48.144;14.118;2022-10-15T04:08:58;20.52;;;15.50;;
8331;SDS011;4203;48.144;14.118;2022-10-15T04:11:25;22.80;;;17.25;;
8331;SDS011;4203;48.144;14.118;2022-10-15T04:13:52;23.40;;;17.30;;
8331;SDS011;4203;48.144;14.118;2022-10-15T04:16:21;20.50;;;15.65;;
8331;SDS011;4203;48.144;14.118;2022-10-15T04:18:48;17.83;;;15.93;;
8331;SDS011;4203;48.144;14.118;2022-10-15T04:21:15;21.23;;;16.67;;
8331;SDS011;4203;48.144;14.118;2022-10-15T04:23:43;17.38;;;15.57;;
8331;SDS011;4203;48.144;14.118;2022-10-15T04:26:10;18.02;;;14.68;;
8331;SDS011;4203;48.144;14.118;2022-10-15T04:28:37;16.25;;;14.13;;
8331;SDS011;4203;48.144;14.118;2022-10-15T04:31:04;19.52;;;15.70;;
8331;SDS011;4203;48.144;14.118;2022-10-15T04:33:33;17.90;;;15.90;;
8331;SDS011;4203;48.144;14.118;2022-10-15T04:36:00;18.02;;;15.48;;
8331;SDS011;4203;48.144;14.118;2022-10-15T04:38:28;18.35;;;15.25;;
8331;SDS011;4203;48.144;14.118;2022-10-15T04:40:59;16.95;;;15.25;;
8331;SDS011;4203;48.144;14.118;2022-10-15T04:43:27;20.98;;;15.88;;
8331;SDS011;4203;48.144;14.118;2022-10-15T04:45:56;19.42;;;15.77;;
8331;SDS011;4203;48.144;14.118;2022-10-15T04:48:24;19.30;;;16.48;;
8331;SDS011;4203;48.144;14.118;2022-10-15T04:50:54;17.20;;;15.38;;
8331;SDS011;4203;48.144;14.118;2022-10-15T04:53:27;16.85;;;14.48;;
8331;SDS011;4203;48.144;14.118;2022-10-15T04:55:58;17.80;;;15.07;;
8331;SDS011;4203;48.144;14.118;2022-10-15T04:58:27;16.65;;;15.07;;
8331;SDS011;4203;48.144;14.118;2022-10-15T05:00:57;20.38;;;16.67;;
8331;SDS011;4203;48.144;14.118;2022-10-15T05:03:25;17.70;;;15.73;;
8331;SDS011;4203;48.144;14.118;2022-10-15T05:05:58;17.17;;;15.40;;
8331;SDS011;4203;48.144;14.118;2022-10-15T05:08:26;20.45;;;15.77;;
8331;SDS011;4203;48.144;14.118;2022-10-15T05:10:53;14.30;;;12.95;;
8331;SDS011;4203;48.144;14.118;2022-10-15T05:13:20;16.13;;;14.68;;
8331;SDS011;4203;48.144;14.118;2022-10-15T05:15:47;20.20;;;16.17;;
8331;SDS011;4203;48.144;14.118;2022-10-15T05:18:14;18.98;;;15.25;;
8331;SDS011;4203;48.144;14.118;2022-10-15T05:20:41;21.25;;;15.65;;
8331;SDS011;4203;48.144;14.118;2022-10-15T05:23:10;18.77;;;15.90;;
8331;SDS011;4203;48.144;14.118;2022-10-15T05:25:38;16.83;;;14.90;;
8331;SDS011;4203;48.144;14.118;2022-10-15T05:28:05;21.35;;;15.73;;
8331;SDS011;4203;48.144;14.118;2022-10-15T05:30:33;17.80;;;15.63;;
8331;SDS011;4203;48.144;14.118;2022-10-15T05:33:00;18.02;;;16.13;;
8331;SDS011;4203;48.144;14.118;2022-10-15T05:35:27;19.38;;;15.85;;
8331;SDS011;4203;48.144;14.118;2022-10-15T05:37:54;17.77;;;14.90;;
8331;SDS011;4203;48.144;14.118;2022-10-15T05:40:23;17.45;;;14.95;;
8331;SDS011;4203;48.144;14.118;2022-10-15T05:42:50;16.67;;;14.40;;
8331;SDS011;4203;48.144;14.118;2022-10-15T05:45:18;16.50;;;14.77;;
8331;SDS011;4203;48.144;14.118;2022-10-15T05:47:45;17.02;;;15.05;;
8331;SDS011;4203;48.144;14.118;2022-10-15T05:50:13;17.83;;;15.52;;
8331;SDS011;4203;48.144;14.118;2022-10-15T05:52:40;16.30;;;14.38;;
8331;SDS011;4203;48.144;14.118;2022-10-15T05:55:07;16.55;;;14.13;;
8331;SDS011;4203;48.144;14.118;2022-10-15T05:57:36;14.80;;;13.30;;
8331;SDS011;4203;48.144;14.118;2022-10-15T06:00:03;16.13;;;14.43;;
8331;SDS011;4203;48.144;14.118;2022-10-15T06:02:31;16.38;;;13.90;;
8331;SDS011;4203;48.144;14.118;2022-10-15T06:04:59;16.10;;;14.50;;
8331;SDS011;4203;48.144;14.118;2022-10-15T06:07:26;15.48;;;14.07;;
8331;SDS011;4203;48.144;14.118;2022-10-15T06:09:53;15.45;;;13.85;;
8331;SDS011;4203;48.144;14.118;2022-10-15T06:12:20;16.27;;;14.00;;
8331;SDS011;4203;48.144;14.118;2022-10-15T06:14:49;17.00;;;15.30;;
8331;SDS011;4203;48.144;14.118;2022-10-15T06:17:16;15.90;;;14.10;;
8331;SDS011;4203;48.144;14.118;2022-10-15T06:19:43;14.38;;;13.05;;
8331;SDS011;4203;48.144;14.118;2022-10-15T06:22:10;14.65;;;12.82;;
8331;SDS011;4203;48.144;14.118;2022-10-15T06:24:37;14.15;;;12.68;;
8331;SDS011;4203;48.144;14.118;2022-10-15T06:27:04;16.00;;;13.98;;
8331;SDS011;4203;48.144;14.118;2022-10-15T06:29:33;14.25;;;12.90;;
8331;SDS011;4203;48.144;14.118;2022-10-15T06:32:01;15.25;;;13.68;;
8331;SDS011;4203;48.144;14.118;2022-10-15T06:34:29;15.18;;;13.77;;
8331;SDS011;4203;48.144;14.118;2022-10-15T06:36:56;14.40;;;13.10;;
8331;SDS011;4203;48.144;14.118;2022-10-15T06:39:23;15.63;;;13.98;;
8331;SDS011;4203;48.144;14.118;2022-10-15T06:41:50;16.23;;;13.68;;
8331;SDS011;4203;48.144;14.118;2022-10-15T06:44:17;14.63;;;13.18;;
8331;SDS011;4203;48.144;14.118;2022-10-15T06:46:44;14.93;;;13.52;;
8331;SDS011;4203;48.144;14.118;2022-10-15T06:49:14;14.65;;;13.35;;
8331;SDS011;4203;48.144;14.118;2022-10-15T06:51:41;14.20;;;13.00;;
8331;SDS011;4203;48.144;14.118;2022-10-15T06:54:08;14.07;;;12.77;;
8331;SDS011;4203;48.144;14.118;2022-10-15T06:56:36;13.90;;;12.15;;
8331;SDS011;4203;48.144;14.118;2022-10-15T06:59:03;12.32;;;11.30;;
8331;SDS011;4203;48.144;14.118;2022-10-15T07:01:31;12.75;;;11.65;;
8331;SDS011;4203;48.144;14.118;2022-10-15T07:03:58;12.10;;;11.00;;
8331;SDS011;4203;48.144;14.118;2022-10-15T07:06:26;11.38;;;10.40;;
8331;SDS011;4203;48.144;14.118;2022-10-15T07:08:53;11.13;;;10.13;;
8331;SDS011;4203;48.144;14.118;2022-10-15T07:11:22;11.57;;;10.60;;
8331;SDS011;4203;48.144;14.118;2022-10-15T07:13:49;10.70;;;9.80;;
8331;SDS011;4203;48.144;14.118;2022-10-15T07:16:16;11.10;;;10.20;;
8331;SDS011;4203;48.144;14.118;2022-10-15T07:18:46;12.13;;;11.02;;
8331;SDS011;4203;48.144;14.118;2022-10-15T07:21:14;10.70;;;9.75;;
8331;SDS011;4203;48.144;14.118;2022-10-15T07:23:43;10.63;;;9.73;;
8331;SDS011;4203;48.144;14.118;2022-10-15T07:26:10;11.95;;;9.77;;
8331;SDS011;4203;48.144;14.118;2022-10-15T07:28:37;10.57;;;9.18;;
8331;SDS011;4203;48.144;14.118;2022-10-15T07:31:06;9.65;;;8.85;;
8331;SDS011;4203;48.144;14.118;2022-10-15T07:33:34;9.18;;;8.38;;
8331;SDS011;4203;48.144;14.118;2022-10-15T07:36:02;8.93;;;8.23;;
8331;SDS011;4203;48.144;14.118;2022-10-15T07:38:30;8.68;;;8.00;;
8331;SDS011;4203;48.144;14.118;2022-10-15T07:40:59;9.85;;;9.15;;
8331;SDS011;4203;48.144;14.118;2022-10-15T07:43:27;8.30;;;7.70;;
8331;SDS011;4203;48.144;14.118;2022-10-15T07:45:54;12.75;;;11.45;;
8331;SDS011;4203;48.144;14.118;2022-10-15T07:48:22;74.63;;;66.65;;
8331;SDS011;4203;48.144;14.118;2022-10-15T07:50:52;24.42;;;21.98;;
8331;SDS011;4203;48.144;14.118;2022-10-15T07:53:20;12.35;;;11.25;;
8331;SDS011;4203;48.144;14.118;2022-10-15T07:55:47;10.30;;;9.40;;
8331;SDS011;4203;48.144;14.118;2022-10-15T07:58:16;8.00;;;7.40;;
8331;SDS011;4203;48.144;14.118;2022-10-15T08:00:43;7.93;;;7.28;;
8331;SDS011;4203;48.144;14.118;2022-10-15T08:03:11;7.45;;;6.85;;
8331;SDS011;4203;48.144;14.118;2022-10-15T08:05:38;7.32;;;6.82;;
8331;SDS011;4203;48.144;14.118;2022-10-15T08:08:05;11.75;;;10.75;;
8331;SDS011;4203;48.144;14.118;2022-10-15T08:10:32;7.57;;;6.82;;
8331;SDS011;4203;48.144;14.118;2022-10-15T08:13:02;7.47;;;6.82;;
8331;SDS011;4203;48.144;14.118;2022-10-15T08:15:30;7.03;;;6.40;;
8331;SDS011;4203;48.144;14.118;2022-10-15T08:17:58;7.32;;;6.70;;
8331;SDS011;4203;48.144;14.118;2022-10-15T08:20:25;49.40;;;30.58;;
8331;SDS011;4203;48.144;14.118;2022-10-15T08:22:52;8.75;;;7.43;;
8331;SDS011;4203;48.144;14.118;2022-10-15T08:25:19;21.50;;;19.23;;
8331;SDS011;4203;48.144;14.118;2022-10-15T08:27:47;10.85;;;9.85;;
8331;SDS011;4203;48.144;14.118;2022-10-15T08:30:14;9.00;;;8.20;;
8331;SDS011;4203;48.144;14.118;2022-10-15T08:32:42;11.48;;;9.88;;
8331;SDS011;4203;48.144;14.118;2022-10-15T08:35:10;11.30;;;10.27;;
8331;SDS011;4203;48.144;14.118;2022-10-15T08:37:37;8.50;;;7.70;;
8331;SDS011;4203;48.144;14.118;2022-10-15T08:40:05;9.25;;;8.43;;
8331;SDS011;4203;48.144;14.118;2022-10-15T08:42:35;15.57;;;13.40;;
8331;SDS011;4203;48.144;14.118;2022-10-15T08:45:05;12.18;;;9.20;;
8331;SDS011;4203;48.144;14.118;2022-10-15T08:47:39;9.50;;;8.40;;
8331;SDS011;4203;48.144;14.118;2022-10-15T08:50:15;9.30;;;8.23;;
8331;SDS011;4203;48.144;14.118;2022-10-15T08:52:46;9.43;;;8.52;;
8331;SDS011;4203;48.144;14.118;2022-10-15T08:55:16;12.07;;;10.90;;
8331;SDS011;4203;48.144;14.118;2022-10-15T08:57:45;29.15;;;26.88;;
8331;SDS011;4203;48.144;14.118;2022-10-15T09:00:19;22.08;;;20.08;;
8331;SDS011;4203;48.144;14.118;2022-10-15T09:02:51;13.00;;;11.70;;
8331;SDS011;4203;48.144;14.118;2022-10-15T09:05:29;8.95;;;7.57;;
8331;SDS011;4203;48.144;14.118;2022-10-15T09:08:02;19.23;;;17.52;;
8331;SDS011;4203;48.144;14.118;2022-10-15T09:10:35;12.80;;;11.23;;
8331;SDS011;4203;48.144;14.118;2022-10-15T09:13:09;12.43;;;11.13;;
8331;SDS011;4203;48.144;14.118;2022-10-15T09:15:46;12.82;;;11.63;;
8331;SDS011;4203;48.144;14.118;2022-10-15T09:18:19;10.32;;;9.13;;
8331;SDS011;4203;48.144;14.118;2022-10-15T09:20:49;11.27;;;9.45;;
8331;SDS011;4203;48.144;14.118;2022-10-15T09:23:17;9.68;;;8.27;;
8331;SDS011;4203;48.144;14.118;2022-10-15T09:25:48;9.07;;;8.20;;
8331;SDS011;4203;48.144;14.118;2022-10-15T09:28:19;9.20;;;7.78;;
8331;SDS011;4203;48.144;14.118;2022-10-15T09:30:51;11.30;;;10.20;;
8331;SDS011;4203;48.144;14.118;2022-10-15T09:33:26;9.60;;;7.88;;
8331;SDS011;4203;48.144;14.118;2022-10-15T09:36:04;10.00;;;8.57;;
8331;SDS011;4203;48.144;14.118;2022-10-15T09:38:43;8.45;;;7.63;;
8331;SDS011;4203;48.144;14.118;2022-10-15T09:41:19;8.15;;;7.40;;
8331;SDS011;4203;48.144;14.118;2022-10-15T09:43:54;9.13;;;8.23;;
8331;SDS011;4203;48.144;14.118;2022-10-15T09:46:25;9.90;;;7.97;;
8331;SDS011;4203;48.144;14.118;2022-10-15T09:48:56;10.02;;;9.02;;
8331;SDS011;4203;48.144;14.118;2022-10-15T09:51:30;8.82;;;7.93;;
8331;SDS011;4203;48.144;14.118;2022-10-15T09:54:02;8.23;;;7.43;;
8331;SDS011;4203;48.144;14.118;2022-10-15T09:56:41;10.05;;;7.53;;
8331;SDS011;4203;48.144;14.118;2022-10-15T09:59:14;11.02;;;9.93;;
8331;SDS011;4203;48.144;14.118;2022-10-15T10:01:54;10.13;;;8.68;;
8331;SDS011;4203;48.144;14.118;2022-10-15T10:04:26;11.55;;;8.55;;
8331;SDS011;4203;48.144;14.118;2022-10-15T10:06:55;9.23;;;7.85;;
8331;SDS011;4203;48.144;14.118;2022-10-15T10:09:25;10.10;;;9.10;;
8331;SDS011;4203;48.144;14.118;2022-10-15T10:11:57;6.53;;;5.93;;
8331;SDS011;4203;48.144;14.118;2022-10-15T10:14:27;11.35;;;10.35;;
8331;SDS011;4203;48.144;14.118;2022-10-15T10:17:03;4.60;;;4.20;;
8331;SDS011;4203;48.144;14.118;2022-10-15T10:20:06;6.68;;;3.95;;
8331;SDS011;4203;48.144;14.118;2022-10-15T10:22:42;3.40;;;3.13;;
8331;SDS011;4203;48.144;14.118;2022-10-15T10:25:28;2.83;;;2.47;;
8331;SDS011;4203;48.144;14.118;2022-10-15T10:28:03;2.95;;;2.67;;
8331;SDS011;4203;48.144;14.118;2022-10-15T10:30:48;2.08;;;1.98;;
8331;SDS011;4203;48.144;14.118;2022-10-15T10:33:20;1.70;;;1.60;;
8331;SDS011;4203;48.144;14.118;2022-10-15T10:35:53;1.75;;;1.65;;
8331;SDS011;4203;48.144;14.118;2022-10-15T10:38:21;1.83;;;1.30;;
8331;SDS011;4203;48.144;14.118;2022-10-15T10:40:50;1.50;;;1.50;;
8331;SDS011;4203;48.144;14.118;2022-10-15T10:43:22;1.33;;;1.33;;
8331;SDS011;4203;48.144;14.118;2022-10-15T10:45:52;0.90;;;0.90;;
8331;SDS011;4203;48.144;14.118;2022-10-15T10:48:24;4.18;;;1.50;;
8331;SDS011;4203;48.144;14.118;2022-10-15T10:51:05;1.30;;;1.08;;
8331;SDS011;4203;48.144;14.118;2022-10-15T10:53:39;1.23;;;1.13;;
8331;SDS011;4203;48.144;14.118;2022-10-15T10:56:13;1.00;;;1.00;;
8331;SDS011;4203;48.144;14.118;2022-10-15T10:58:41;1.00;;;1.00;;
8331;SDS011;4203;48.144;14.118;2022-10-15T11:01:09;1.40;;;1.25;;
8331;SDS011;4203;48.144;14.118;2022-10-15T11:03:38;1.13;;;1.10;;
8331;SDS011;4203;48.144;14.118;2022-10-15T11:06:34;2.17;;;0.95;;
8331;SDS011;4203;48.144;14.118;2022-10-15T11:09:18;1.10;;;0.82;;
8331;SDS011;4203;48.144;14.118;2022-10-15T11:11:59;1.50;;;0.88;;
8331;SDS011;4203;48.144;14.118;2022-10-15T11:14:37;0.85;;;0.70;;
8331;SDS011;4203;48.144;14.118;2022-10-15T11:17:15;0.90;;;0.90;;
8331;SDS011;4203;48.144;14.118;2022-10-15T11:19:51;1.48;;;0.98;;
8331;SDS011;4203;48.144;14.118;2022-10-15T11:22:30;0.95;;;0.90;;
8331;SDS011;4203;48.144;14.118;2022-10-15T11:25:10;1.17;;;0.80;;
8331;SDS011;4203;48.144;14.118;2022-10-15T11:27:53;1.75;;;1.08;;
8331;SDS011;4203;48.144;14.118;2022-10-15T11:30:29;2.45;;;1.05;;
8331;SDS011;4203;48.144;14.118;2022-10-15T11:33:11;0.70;;;0.70;;
8331;SDS011;4203;48.144;14.118;2022-10-15T11:35:53;1.00;;;1.00;;
8331;SDS011;4203;48.144;14.118;2022-10-15T11:38:32;0.77;;;0.70;;
8331;SDS011;4203;48.144;14.118;2022-10-15T11:41:15;1.30;;;0.70;;
8331;SDS011;4203;48.144;14.118;2022-10-15T11:43:57;0.70;;;0.70;;
8331;SDS011;4203;48.144;14.118;2022-10-15T11:46:33;0.80;;;0.80;;
8331;SDS011;4203;48.144;14.118;2022-10-15T11:49:11;1.33;;;0.60;;
8331;SDS011;4203;48.144;14.118;2022-10-15T11:51:55;0.47;;;0.47;;
8331;SDS011;4203;48.144;14.118;2022-10-15T11:54:39;0.50;;;0.50;;
8331;SDS011;4203;48.144;14.118;2022-10-15T11:57:11;0.70;;;0.70;;
8331;SDS011;4203;48.144;14.118;2022-10-15T11:59:43;1.33;;;0.80;;
8331;SDS011;4203;48.144;14.118;2022-10-15T12:02:16;0.98;;;0.65;;
8331;SDS011;4203;48.144;14.118;2022-10-15T12:04:48;0.70;;;0.70;;
8331;SDS011;4203;48.144;14.118;2022-10-15T12:07:19;0.52;;;0.52;;
8331;SDS011;4203;48.144;14.118;2022-10-15T12:09:51;1.08;;;0.88;;
8331;SDS011;4203;48.144;14.118;2022-10-15T12:12:25;1.45;;;0.63;;
8331;SDS011;4203;48.144;14.118;2022-10-15T12:15:04;2.83;;;0.88;;
8331;SDS011;4203;48.144;14.118;2022-10-15T12:17:41;0.70;;;0.70;;
8331;SDS011;4203;48.144;14.118;2022-10-15T12:20:14;1.27;;;0.60;;
8331;SDS011;4203;48.144;14.118;2022-10-15T12:22:52;0.68;;;0.68;;
8331;SDS011;4203;48.144;14.118;2022-10-15T12:28:14;1.13;;;0.70;;
8331;SDS011;4203;48.144;14.118;2022-10-15T12:30:54;2.40;;;0.50;;
8331;SDS011;4203;48.144;14.118;2022-10-15T12:33:24;0.60;;;0.60;;
8331;SDS011;4203;48.144;14.118;2022-10-15T12:35:57;2.05;;;0.57;;
8331;SDS011;4203;48.144;14.118;2022-10-15T12:38:27;1.85;;;0.68;;
8331;SDS011;4203;48.144;14.118;2022-10-15T12:41:02;0.75;;;0.70;;
8331;SDS011;4203;48.144;14.118;2022-10-15T12:43:32;0.70;;;0.70;;
8331;SDS011;4203;48.144;14.118;2022-10-15T12:46:03;0.77;;;0.77;;
8331;SDS011;4203;48.144;14.118;2022-10-15T12:48:35;0.73;;;0.60;;
8331;SDS011;4203;48.144;14.118;2022-10-15T12:57:00;0.77;;;0.77;;
8331;SDS011;4203;48.144;14.118;2022-10-15T13:02:33;2.80;;;1.00;;
8331;SDS011;4203;48.144;14.118;2022-10-15T13:05:03;1.13;;;0.90;;
8331;SDS011;4203;48.144;14.118;2022-10-15T13:07:34;1.75;;;0.70;;
8331;SDS011;4203;48.144;14.118;2022-10-15T13:10:14;1.48;;;0.98;;
8331;SDS011;4203;48.144;14.118;2022-10-15T13:12:50;0.80;;;0.80;;
8331;SDS011;4203;48.144;14.118;2022-10-15T13:15:19;2.88;;;1.70;;
8331;SDS011;4203;48.144;14.118;2022-10-15T13:17:48;4.28;;;2.13;;
8331;SDS011;4203;48.144;14.118;2022-10-15T13:20:25;2.20;;;2.10;;
8331;SDS011;4203;48.144;14.118;2022-10-15T13:23:07;2.38;;;2.17;;
8331;SDS011;4203;48.144;14.118;2022-10-15T13:25:42;3.00;;;1.83;;
8331;SDS011;4203;48.144;14.118;2022-10-15T13:31:07;1.80;;;1.33;;
8331;SDS011;4203;48.144;14.118;2022-10-15T13:33:41;2.65;;;1.70;;
8331;SDS011;4203;48.144;14.118;2022-10-15T13:36:14;2.55;;;1.70;;
8331;SDS011;4203;48.144;14.118;2022-10-15T13:38:49;3.67;;;1.30;;
8331;SDS011;4203;48.144;14.118;2022-10-15T13:41:21;1.40;;;1.30;;
8331;SDS011;4203;48.144;14.118;2022-10-15T13:43:52;3.10;;;0.73;;
8331;SDS011;4203;48.144;14.118;2022-10-15T13:46:23;1.00;;;0.65;;
8331;SDS011;4203;48.144;14.118;2022-10-15T13:48:55;4.65;;;0.70;;
8331;SDS011;4203;48.144;14.118;2022-10-15T13:51:26;0.75;;;0.55;;
8331;SDS011;4203;48.144;14.118;2022-10-15T13:53:59;1.15;;;0.70;;
8331;SDS011;4203;48.144;14.118;2022-10-15T13:56:28;2.05;;;0.50;;
8331;SDS011;4203;48.144;14.118;2022-10-15T13:59:03;0.93;;;0.52;;
8331;SDS011;4203;48.144;14.118;2022-10-15T14:01:30;1.42;;;0.73;;
8331;SDS011;4203;48.144;14.118;2022-10-15T14:04:00;1.65;;;0.50;;
8331;SDS011;4203;48.144;14.118;2022-10-15T14:06:28;0.60;;;0.60;;
8331;SDS011;4203;48.144;14.118;2022-10-15T14:08:57;2.25;;;0.60;;
8331;SDS011;4203;48.144;14.118;2022-10-15T14:11:25;2.95;;;0.88;;
8331;SDS011;4203;48.144;14.118;2022-10-15T14:13:55;1.45;;;0.60;;
8331;SDS011;4203;48.144;14.118;2022-10-15T14:16:26;4.32;;;0.82;;
8331;SDS011;4203;48.144;14.118;2022-10-15T14:18:55;0.60;;;0.60;;
8331;SDS011;4203;48.144;14.118;2022-10-15T14:21:33;0.43;;;0.40;;
8331;SDS011;4203;48.144;14.118;2022-10-15T14:24:02;0.50;;;0.50;;
8331;SDS011;4203;48.144;14.118;2022-10-15T14:26:31;0.80;;;0.80;;
8331;SDS011;4203;48.144;14.118;2022-10-15T14:29:00;1.02;;;0.60;;
8331;SDS011;4203;48.144;14.118;2022-10-15T14:31:31;0.52;;;0.52;;
8331;SDS011;4203;48.144;14.118;2022-10-15T14:34:03;2.70;;;0.68;;
8331;SDS011;4203;48.144;14.118;2022-10-15T14:36:31;2.13;;;0.60;;
8331;SDS011;4203;48.144;14.118;2022-10-15T14:39:20;0.60;;;0.60;;
8331;SDS011;4203;48.144;14.118;2022-10-15T14:41:56;0.73;;;0.70;;
8331;SDS011;4203;48.144;14.118;2022-10-15T14:44:25;0.60;;;0.60;;
8331;SDS011;4203;48.144;14.118;2022-10-15T14:46:58;0.50;;;0.50;;
8331;SDS011;4203;48.144;14.118;2022-10-15T14:49:28;1.45;;;0.80;;
8331;SDS011;4203;48.144;14.118;2022-10-15T14:51:59;0.70;;;0.70;;
8331;SDS011;4203;48.144;14.118;2022-10-15T14:54:31;1.48;;;0.77;;
8331;SDS011;4203;48.144;14.118;2022-10-15T14:57:01;3.40;;;1.13;;
8331;SDS011;4203;48.144;14.118;2022-10-15T14:59:30;2.15;;;0.85;;
8331;SDS011;4203;48.144;14.118;2022-10-15T15:02:03;2.00;;;0.50;;
8331;SDS011;4203;48.144;14.118;2022-10-15T15:04:40;1.15;;;0.80;;
8331;SDS011;4203;48.144;14.118;2022-10-15T15:07:09;0.75;;;0.75;;
8331;SDS011;4203;48.144;14.118;2022-10-15T15:09:40;0.80;;;0.80;;
8331;SDS011;4203;48.144;14.118;2022-10-15T15:12:13;1.50;;;0.77;;
8331;SDS011;4203;48.144;14.118;2022-10-15T15:14:43;0.80;;;0.80;;
8331;SDS011;4203;48.144;14.118;2022-10-15T15:17:14;0.60;;;0.60;;
8331;SDS011;4203;48.144;14.118;2022-10-15T15:19:42;2.65;;;1.00;;
8331;SDS011;4203;48.144;14.118;2022-10-15T15:22:10;1.40;;;1.15;;